createdAt,value
2023-02-23T00:00:03.028Z,58.45
2023-02-23T00:01:07.289Z,58.22
2023-02-23T00:02:11.568Z,58.82
2023-02-23T00:03:15.944Z,58.77
2023-02-23T00:04:20.199Z,58.89
2023-02-23T00:05:24.476Z,58.62
2023-02-23T00:06:28.909Z,58.25
2023-02-23T00:07:33.279Z,58.82
2023-02-23T00:08:37.508Z,58.35
2023-02-23T00:09:41.750Z,58.7
2023-02-23T00:10:45.979Z,58.27
2023-02-23T00:11:50.257Z,59.18
2023-02-23T00:12:54.507Z,58.56
2023-02-23T00:13:58.809Z,57.79
2023-02-23T00:15:03.128Z,58.63
2023-02-23T00:16:07.552Z,58.29
2023-02-23T00:17:11.873Z,58.72
2023-02-23T00:18:16.176Z,59.18
2023-02-23T00:19:20.666Z,58.31
2023-02-23T00:20:25.035Z,58.77
2023-02-23T00:21:29.343Z,58.87
2023-02-23T00:22:33.649Z,58.76
2023-02-23T00:23:37.961Z,59.01
2023-02-23T00:24:42.568Z,59.08
2023-02-23T00:25:47.081Z,59.12
2023-02-23T00:26:51.753Z,59.14
2023-02-23T00:27:56.088Z,58.84
2023-02-23T00:29:00.394Z,58.47
2023-02-23T00:30:04.680Z,59.18
2023-02-23T00:31:09.131Z,59.21
2023-02-23T00:32:13.881Z,59.14
2023-02-23T00:33:18.385Z,59.2
2023-02-23T00:34:22.698Z,59.23
2023-02-23T00:35:27.018Z,59.27
2023-02-23T00:36:31.299Z,58.59
2023-02-23T00:37:35.631Z,59.02
2023-02-23T00:38:40.002Z,59.26
2023-02-23T00:39:44.353Z,58.56
2023-02-23T00:40:48.634Z,59.21
2023-02-23T00:41:52.957Z,59.26
2023-02-23T00:42:57.277Z,59.37
2023-02-23T00:44:01.571Z,59.5
2023-02-23T00:45:05.910Z,59.46
2023-02-23T00:46:10.265Z,59.54
2023-02-23T00:47:14.616Z,59.1
2023-02-23T00:48:18.897Z,59.46
2023-02-23T00:49:23.167Z,59.07
2023-02-23T00:50:27.454Z,58.59
2023-02-23T00:51:31.760Z,58.19
2023-02-23T00:52:36.053Z,58.71
2023-02-23T00:53:40.368Z,58.59
2023-02-23T00:54:44.708Z,59.21
2023-02-23T00:55:51.312Z,58.92
2023-02-23T00:56:55.595Z,58.8
2023-02-23T00:58:00.147Z,58.69
2023-02-23T00:59:04.432Z,59.33
2023-02-23T01:00:08.769Z,59.38
2023-02-23T01:01:13.186Z,58.67
2023-02-23T01:02:17.664Z,59.34
2023-02-23T01:03:21.963Z,59.09
2023-02-23T01:04:26.258Z,59.26
2023-02-23T01:05:30.669Z,58.59
2023-02-23T01:06:34.950Z,58.99
2023-02-23T01:07:39.263Z,58.59
2023-02-23T01:08:43.563Z,58.71
2023-02-23T01:09:47.877Z,58.9
2023-02-23T01:10:52.199Z,59.45
2023-02-23T01:11:56.538Z,59.18
2023-02-23T01:13:00.841Z,58.47
2023-02-23T01:14:05.159Z,58.73
2023-02-23T01:15:09.471Z,59.24
2023-02-23T01:16:13.786Z,58.91
2023-02-23T01:17:18.155Z,58.97
2023-02-23T01:18:22.461Z,58.49
2023-02-23T01:19:26.767Z,59.52
2023-02-23T01:20:31.102Z,58.92
2023-02-23T01:21:35.400Z,58.76
2023-02-23T01:22:39.747Z,58.95
2023-02-23T01:23:44.055Z,58.65
2023-02-23T01:24:48.374Z,58.58
2023-02-23T01:25:52.697Z,58.7
2023-02-23T01:26:57.010Z,58.62
2023-02-23T01:28:01.303Z,59.52
2023-02-23T01:29:05.736Z,58.77
2023-02-23T01:30:10.110Z,58.94
2023-02-23T01:31:14.843Z,59.46
2023-02-23T01:32:19.614Z,58.6
2023-02-23T01:33:23.960Z,58.76
2023-02-23T01:34:28.307Z,58.9
2023-02-23T01:35:32.646Z,58.16
2023-02-23T01:36:36.965Z,58.68
2023-02-23T01:37:41.239Z,59.34
2023-02-23T01:38:45.545Z,59.46
2023-02-23T01:39:49.844Z,59.01
2023-02-23T01:40:54.151Z,59.42
2023-02-23T01:41:58.467Z,59.11
2023-02-23T01:43:02.780Z,59.48
2023-02-23T01:44:07.148Z,59.78
2023-02-23T01:45:11.478Z,59.79
2023-02-23T01:46:15.914Z,59.94
2023-02-23T01:47:20.291Z,59.97
2023-02-23T01:48:24.584Z,59.91
2023-02-23T01:49:28.981Z,59.67
2023-02-23T01:50:33.321Z,59.84
2023-02-23T01:51:37.661Z,59.91
2023-02-23T01:52:41.940Z,59.92
2023-02-23T01:53:46.304Z,59.71
2023-02-23T01:54:50.729Z,59.83
2023-02-23T01:55:55.045Z,59.94
2023-02-23T01:56:59.781Z,60.08
2023-02-23T01:58:04.072Z,60.06
2023-02-23T01:59:08.378Z,60.03
2023-02-23T02:00:12.689Z,59.4
2023-02-23T02:01:17.846Z,60.14
2023-02-23T02:02:22.360Z,60.08
2023-02-23T02:03:26.656Z,60.16
2023-02-23T02:04:31.002Z,60.14
2023-02-23T02:05:35.330Z,59.97
2023-02-23T02:06:39.637Z,60.05
2023-02-23T02:07:43.928Z,59.6
2023-02-23T02:08:48.243Z,60.13
2023-02-23T02:09:52.581Z,60.12
2023-02-23T02:10:56.903Z,59.97
2023-02-23T02:12:01.253Z,59.75
2023-02-23T02:13:05.548Z,60.09
2023-02-23T02:14:09.889Z,59.52
2023-02-23T02:15:14.200Z,59.36
2023-02-23T02:16:18.673Z,59.83
2023-02-23T02:17:23.130Z,59
2023-02-23T02:18:27.449Z,60.12
2023-02-23T02:19:31.784Z,60.09
2023-02-23T02:20:36.173Z,60.25
2023-02-23T02:21:40.482Z,60.27
2023-02-23T02:22:44.812Z,60.19
2023-02-23T02:23:49.165Z,59.55
2023-02-23T02:24:53.654Z,60.34
2023-02-23T02:25:58.175Z,60.21
2023-02-23T02:27:02.468Z,60.28
2023-02-23T02:28:06.744Z,60.22
2023-02-23T02:29:11.116Z,60.13
2023-02-23T02:30:15.456Z,60.21
2023-02-23T02:31:21.223Z,60.33
2023-02-23T02:32:25.971Z,60.29
2023-02-23T02:33:30.293Z,60.48
2023-02-23T02:34:34.603Z,59.25
2023-02-23T02:35:38.903Z,60.2
2023-02-23T02:36:43.206Z,60.3
2023-02-23T02:37:47.500Z,60.11
2023-02-23T02:38:51.788Z,59.87
2023-02-23T02:39:56.127Z,60.22
2023-02-23T02:41:00.406Z,59.55
2023-02-23T02:42:04.693Z,60.21
2023-02-23T02:43:08.987Z,60.24
2023-02-23T02:44:13.309Z,59.96
2023-02-23T02:45:17.671Z,59.44
2023-02-23T02:46:22.340Z,59.25
2023-02-23T02:47:26.656Z,59.98
2023-02-23T02:48:30.985Z,60.21
2023-02-23T02:49:35.299Z,60.3
2023-02-23T02:50:39.656Z,60.27
2023-02-23T02:51:43.951Z,59.75
2023-02-23T02:52:48.256Z,59.47
2023-02-23T02:53:52.526Z,59.18
2023-02-23T02:54:56.819Z,60.29
2023-02-23T02:56:01.118Z,59.73
2023-02-23T02:57:05.592Z,60.27
2023-02-23T02:58:09.943Z,60.35
2023-02-23T02:59:14.240Z,60.15
2023-02-23T03:00:18.543Z,60.27
2023-02-23T03:01:23.410Z,60.27
2023-02-23T03:02:27.788Z,60.39
2023-02-23T03:03:32.101Z,60.28
2023-02-23T03:04:36.404Z,60.46
2023-02-23T03:05:40.687Z,59.99
2023-02-23T03:06:44.972Z,60.42
2023-02-23T03:07:49.259Z,60.45
2023-02-23T03:08:53.584Z,60.3
2023-02-23T03:09:57.893Z,60.46
2023-02-23T03:11:02.201Z,60.37
2023-02-23T03:12:06.511Z,60.35
2023-02-23T03:13:10.811Z,60.12
2023-02-23T03:14:15.162Z,59.53
2023-02-23T03:15:19.774Z,59.98
2023-02-23T03:16:24.370Z,60.32
2023-02-23T03:17:28.773Z,60.47
2023-02-23T03:18:33.071Z,60.24
2023-02-23T03:19:37.392Z,60.08
2023-02-23T03:20:41.699Z,59.36
2023-02-23T03:21:46.063Z,59.7
2023-02-23T03:22:50.372Z,59.99
2023-02-23T03:23:54.686Z,60.21
2023-02-23T03:24:59.001Z,60.17
2023-02-23T03:26:03.295Z,60.35
2023-02-23T03:27:07.589Z,60.44
2023-02-23T03:28:11.901Z,60.41
2023-02-23T03:29:16.186Z,59.62
2023-02-23T03:30:20.490Z,59.39
2023-02-23T03:31:24.999Z,60.18
2023-02-23T03:32:30.188Z,60.3
2023-02-23T03:33:34.536Z,59.27
2023-02-23T03:34:38.819Z,60.26
2023-02-23T03:35:43.125Z,60.02
2023-02-23T03:36:47.439Z,60.19
2023-02-23T03:37:51.755Z,60.19
2023-02-23T03:38:56.087Z,60.26
2023-02-23T03:40:00.412Z,59.73
2023-02-23T03:41:04.701Z,60.25
2023-02-23T03:42:09.017Z,60.24
2023-02-23T03:43:13.341Z,60.19
2023-02-23T03:44:17.624Z,60
2023-02-23T03:45:22.007Z,59.96
2023-02-23T03:46:26.397Z,60.09
2023-02-23T03:47:30.723Z,59.98
2023-02-23T03:48:35.003Z,60.19
2023-02-23T03:49:39.290Z,60.27
2023-02-23T03:50:43.581Z,60.24
2023-02-23T03:51:47.864Z,60.29
2023-02-23T03:52:52.202Z,60.28
2023-02-23T03:53:56.493Z,59.32
2023-02-23T03:55:00.801Z,59.37
2023-02-23T03:56:05.083Z,60.17
2023-02-23T03:57:09.382Z,59.49
2023-02-23T03:58:13.683Z,59.87
2023-02-23T03:59:18.000Z,58.91
2023-02-23T04:00:22.300Z,59.68
2023-02-23T04:01:26.658Z,58.85
2023-02-23T04:02:30.938Z,59.9
2023-02-23T04:03:35.444Z,58.91
2023-02-23T04:04:39.782Z,59.91
2023-02-23T04:05:44.090Z,60.04
2023-02-23T04:06:48.409Z,59.96
2023-02-23T04:07:52.704Z,59.9
2023-02-23T04:08:57.022Z,60.21
2023-02-23T04:10:01.357Z,60.11
2023-02-23T04:11:05.652Z,60.28
2023-02-23T04:12:09.971Z,60.26
2023-02-23T04:13:14.521Z,60.14
2023-02-23T04:14:18.884Z,59.75
2023-02-23T04:15:23.162Z,59.62
2023-02-23T04:16:27.515Z,60.21
2023-02-23T04:17:31.917Z,60.06
2023-02-23T04:18:36.198Z,59.58
2023-02-23T04:19:40.492Z,60.24
2023-02-23T04:20:44.929Z,60.17
2023-02-23T04:21:49.215Z,60.18
2023-02-23T04:22:53.526Z,59.83
2023-02-23T04:23:57.858Z,59.76
2023-02-23T04:25:02.124Z,60.16
2023-02-23T04:26:06.373Z,60.34
2023-02-23T04:27:10.598Z,60.12
2023-02-23T04:28:14.858Z,60.23
2023-02-23T04:29:19.145Z,60.22
2023-02-23T04:30:23.440Z,59.77
2023-02-23T04:31:28.995Z,59.73
2023-02-23T04:32:33.728Z,59.05
2023-02-23T04:33:38.151Z,59.42
2023-02-23T04:34:42.448Z,59.18
2023-02-23T04:35:46.708Z,59.16
2023-02-23T04:36:50.962Z,58.9
2023-02-23T04:37:55.250Z,59.81
2023-02-23T04:38:59.499Z,59.97
2023-02-23T04:40:03.797Z,59.29
2023-02-23T04:41:08.030Z,59.11
2023-02-23T04:42:12.265Z,58.75
2023-02-23T04:43:16.803Z,58.77
2023-02-23T04:44:21.119Z,59.41
2023-02-23T04:45:25.394Z,59.83
2023-02-23T04:46:29.677Z,59.78
2023-02-23T04:47:33.913Z,60.22
2023-02-23T04:48:38.186Z,59.88
2023-02-23T04:49:42.408Z,59.79
2023-02-23T04:50:46.811Z,59.4
2023-02-23T04:51:51.057Z,59.83
2023-02-23T04:52:56.357Z,59.95
2023-02-23T04:54:00.600Z,59.9
2023-02-23T04:55:04.846Z,59.74
2023-02-23T04:56:09.339Z,60.07
2023-02-23T04:57:13.574Z,58.46
2023-02-23T04:58:17.830Z,58.89
2023-02-23T04:59:22.078Z,58.84
2023-02-23T05:00:26.809Z,59.19
2023-02-23T05:01:31.146Z,58.45
2023-02-23T05:02:35.459Z,58.26
2023-02-23T05:03:39.728Z,58.37
2023-02-23T05:04:44.091Z,56.79
2023-02-23T05:05:48.417Z,56.59
2023-02-23T05:06:52.695Z,55.96
2023-02-23T05:07:57.140Z,55.58
2023-02-23T05:09:01.389Z,55.33
2023-02-23T05:10:06.646Z,54.71
2023-02-23T05:11:10.922Z,54.53
2023-02-23T05:12:15.152Z,54.81
2023-02-23T05:13:19.407Z,54.47
2023-02-23T05:14:23.663Z,54.1
2023-02-23T05:15:27.908Z,53.74
2023-02-23T05:16:32.158Z,53.35
2023-02-23T05:17:36.399Z,53.02
2023-02-23T05:18:40.644Z,52.83
2023-02-23T05:19:44.923Z,52.55
2023-02-23T05:20:49.156Z,52.34
2023-02-23T05:21:53.404Z,52.12
2023-02-23T05:22:57.670Z,51.99
2023-02-23T05:24:01.920Z,51.92
2023-02-23T05:25:06.162Z,51.78
2023-02-23T05:26:10.492Z,51.7
2023-02-23T05:27:14.747Z,51.62
2023-02-23T05:28:19.006Z,51.54
2023-02-23T05:29:23.279Z,51.43
2023-02-23T05:30:27.612Z,51.35
2023-02-23T05:31:32.231Z,51.34
2023-02-23T05:32:36.725Z,51.33
2023-02-23T05:33:40.957Z,51.37
2023-02-23T05:34:47.493Z,51.34
2023-02-23T05:35:51.726Z,51.38
2023-02-23T05:36:55.974Z,51.34
2023-02-23T05:38:00.222Z,51.29
2023-02-23T05:39:04.461Z,51.35
2023-02-23T05:40:08.771Z,51.37
2023-02-23T05:41:13.060Z,51.31
2023-02-23T05:42:17.327Z,51.38
2023-02-23T05:43:21.617Z,51.37
2023-02-23T05:44:25.846Z,51.28
2023-02-23T05:45:30.148Z,51.43
2023-02-23T05:46:34.515Z,51.35
2023-02-23T05:47:39.047Z,51.4
2023-02-23T05:48:43.329Z,51.31
2023-02-23T05:49:47.559Z,51.38
2023-02-23T05:50:51.796Z,51.5
2023-02-23T05:51:56.027Z,51.45
2023-02-23T05:53:00.266Z,51.44
2023-02-23T05:54:04.546Z,51.47
2023-02-23T05:55:08.785Z,51.52
2023-02-23T05:56:13.145Z,51.62
2023-02-23T05:57:17.391Z,51.78
2023-02-23T05:58:21.658Z,51.73
2023-02-23T05:59:25.886Z,51.78
2023-02-23T06:00:30.131Z,51.78
2023-02-23T06:01:34.454Z,51.8
2023-02-23T06:02:38.919Z,51.93
2023-02-23T06:03:43.469Z,51.99
2023-02-23T06:04:47.761Z,52.17
2023-02-23T06:05:52.035Z,52.16
2023-02-23T06:06:56.294Z,52.07
2023-02-23T06:08:00.575Z,52.35
2023-02-23T06:09:04.857Z,52.37
2023-02-23T06:10:09.111Z,52.2
2023-02-23T06:11:13.358Z,52.37
2023-02-23T06:12:17.619Z,52.34
2023-02-23T06:13:21.845Z,52.58
2023-02-23T06:14:26.141Z,52.49
2023-02-23T06:15:31.989Z,52.38
2023-02-23T06:16:36.859Z,52.53
2023-02-23T06:17:41.157Z,52.43
2023-02-23T06:18:45.399Z,52.48
2023-02-23T06:19:49.686Z,52.49
2023-02-23T06:20:53.975Z,52.42
2023-02-23T06:21:58.225Z,52.53
2023-02-23T06:23:02.478Z,52.46
2023-02-23T06:24:06.900Z,52.5
2023-02-23T06:25:11.135Z,52.57
2023-02-23T06:26:15.408Z,52.58
2023-02-23T06:27:19.702Z,52.56
2023-02-23T06:28:24.265Z,52.48
2023-02-23T06:29:28.525Z,52.02
2023-02-23T06:30:32.974Z,52.08
2023-02-23T06:31:37.767Z,52.14
2023-02-23T06:32:42.243Z,52.31
2023-02-23T06:33:46.488Z,52.17
2023-02-23T06:34:50.734Z,52.41
2023-02-23T06:35:54.958Z,52.4
2023-02-23T06:36:59.299Z,52.38
2023-02-23T06:38:03.586Z,52.48
2023-02-23T06:39:07.820Z,52.39
2023-02-23T06:40:12.076Z,52.36
2023-02-23T06:41:16.578Z,52.5
2023-02-23T06:42:20.941Z,52.53
2023-02-23T06:43:25.516Z,52.5
2023-02-23T06:44:29.768Z,52.44
2023-02-23T06:45:34.032Z,52.4
2023-02-23T06:46:38.528Z,52.4
2023-02-23T06:47:42.830Z,52.17
2023-02-23T06:48:47.050Z,52.03
2023-02-23T06:49:51.302Z,51.91
2023-02-23T06:50:55.575Z,51.67
2023-02-23T06:51:59.831Z,51.82
2023-02-23T06:53:04.115Z,51.64
2023-02-23T06:54:08.376Z,51.37
2023-02-23T06:55:12.725Z,51.52
2023-02-23T06:56:16.970Z,51.25
2023-02-23T06:57:21.196Z,51.47
2023-02-23T06:58:25.501Z,51.17
2023-02-23T06:59:29.771Z,51.28
2023-02-23T07:00:34.061Z,51.37
2023-02-23T07:01:38.460Z,51.39
2023-02-23T07:02:42.730Z,51.14
2023-02-23T07:03:47.092Z,51.42
2023-02-23T07:04:51.364Z,51.36
2023-02-23T07:05:55.620Z,51.33
2023-02-23T07:06:59.889Z,51.34
2023-02-23T07:08:04.137Z,51.49
2023-02-23T07:09:08.379Z,51.23
2023-02-23T07:10:12.680Z,51.41
2023-02-23T07:11:17.434Z,51.37
2023-02-23T07:12:22.159Z,51.32
2023-02-23T07:13:26.415Z,51.24
2023-02-23T07:14:30.730Z,51.43
2023-02-23T07:15:34.959Z,51.3
2023-02-23T07:16:39.431Z,51.33
2023-02-23T07:17:43.699Z,51.7
2023-02-23T07:18:48.005Z,51.48
2023-02-23T07:19:52.287Z,51.49
2023-02-23T07:20:56.572Z,51.45
2023-02-23T07:22:00.827Z,51.56
2023-02-23T07:23:05.094Z,51.48
2023-02-23T07:24:09.355Z,51.43
2023-02-23T07:25:13.647Z,51.41
2023-02-23T07:26:17.960Z,51.51
2023-02-23T07:27:22.213Z,51.48
2023-02-23T07:28:26.505Z,51.51
2023-02-23T07:29:30.767Z,51.63
2023-02-23T07:30:35.138Z,51.52
2023-02-23T07:31:40.061Z,51.6
2023-02-23T07:32:44.538Z,51.59
2023-02-23T07:33:48.811Z,51.56
2023-02-23T07:34:55.761Z,51.67
2023-02-23T07:36:00.028Z,51.59
2023-02-23T07:37:04.563Z,51.79
2023-02-23T07:38:08.832Z,51.63
2023-02-23T07:39:13.115Z,51.66
2023-02-23T07:40:17.396Z,51.58
2023-02-23T07:41:22.635Z,51.6
2023-02-23T07:42:27.235Z,51.69
2023-02-23T07:43:31.462Z,51.63
2023-02-23T07:44:35.755Z,51.71
2023-02-23T07:45:40.104Z,51.67
2023-02-23T07:46:44.355Z,51.82
2023-02-23T07:47:48.607Z,51.81
2023-02-23T07:48:52.888Z,51.67
2023-02-23T07:49:57.188Z,51.74
2023-02-23T07:51:01.429Z,51.85
2023-02-23T07:52:05.696Z,51.76
2023-02-23T07:53:09.946Z,51.73
2023-02-23T07:54:14.193Z,51.81
2023-02-23T07:55:18.613Z,51.81
2023-02-23T07:56:22.836Z,51.59
2023-02-23T07:57:27.186Z,51.74
2023-02-23T07:58:31.451Z,51.59
2023-02-23T07:59:35.718Z,51.77
2023-02-23T08:00:39.967Z,51.54
2023-02-23T08:01:44.211Z,51.44
2023-02-23T08:02:48.525Z,50.97
2023-02-23T08:03:52.783Z,50.85
2023-02-23T08:04:57.046Z,50.8
2023-02-23T08:06:01.293Z,50.71
2023-02-23T08:07:05.524Z,50.68
2023-02-23T08:08:09.819Z,50.62
2023-02-23T08:09:14.094Z,50.55
2023-02-23T08:10:18.344Z,50.57
2023-02-23T08:11:23.087Z,50.54
2023-02-23T08:12:27.519Z,50.71
2023-02-23T08:13:31.861Z,50.73
2023-02-23T08:14:36.101Z,50.77
2023-02-23T08:15:40.375Z,50.7
2023-02-23T08:16:44.815Z,50.78
2023-02-23T08:17:49.106Z,50.86
2023-02-23T08:18:53.525Z,50.78
2023-02-23T08:19:57.760Z,50.96
2023-02-23T08:21:02.045Z,50.91
2023-02-23T08:22:09.863Z,50.87
2023-02-23T08:23:14.236Z,51.03
2023-02-23T08:24:18.488Z,51.05
2023-02-23T08:25:22.757Z,51.12
2023-02-23T08:26:27.022Z,51.12
2023-02-23T08:27:31.269Z,51.19
2023-02-23T08:28:35.541Z,51.14
2023-02-23T08:29:39.788Z,51.19
2023-02-23T08:30:44.337Z,51.26
2023-02-23T08:31:49.340Z,51.32
2023-02-23T08:32:53.774Z,51.4
2023-02-23T08:33:58.061Z,51.57
2023-02-23T08:35:02.313Z,51.47
2023-02-23T08:36:06.592Z,51.48
2023-02-23T08:37:11.038Z,51.62
2023-02-23T08:38:15.561Z,51.51
2023-02-23T08:39:19.795Z,51.58
2023-02-23T08:40:24.071Z,51.63
2023-02-23T08:41:28.320Z,51.69
2023-02-23T08:42:32.560Z,51.71
2023-02-23T08:43:36.800Z,51.63
2023-02-23T08:44:41.036Z,51.71
2023-02-23T08:45:45.296Z,51.68
2023-02-23T08:46:49.576Z,51.63
2023-02-23T08:47:53.822Z,51.73
2023-02-23T08:48:58.117Z,51.35
2023-02-23T08:50:02.447Z,51.56
2023-02-23T08:51:06.709Z,51.64
2023-02-23T08:52:10.975Z,51.57
2023-02-23T08:53:15.202Z,51.6
2023-02-23T08:54:19.443Z,51.73
2023-02-23T08:55:23.791Z,51.72
2023-02-23T08:56:28.102Z,51.63
2023-02-23T08:57:32.467Z,51.72
2023-02-23T08:58:36.780Z,51.77
2023-02-23T08:59:41.273Z,51.68
2023-02-23T09:00:45.572Z,51.89
2023-02-23T09:01:49.922Z,51.85
2023-02-23T09:02:54.220Z,51.76
2023-02-23T09:03:58.524Z,51.77
2023-02-23T09:05:02.992Z,51.85
2023-02-23T09:06:07.289Z,51.87
2023-02-23T09:07:11.529Z,51.86
2023-02-23T09:08:15.788Z,51.86
2023-02-23T09:09:20.045Z,51.95
2023-02-23T09:10:24.438Z,51.96
2023-02-23T09:11:28.682Z,51.99
2023-02-23T09:12:32.955Z,51.99
2023-02-23T09:13:37.189Z,52.07
2023-02-23T09:14:41.499Z,52.04
2023-02-23T09:15:46.012Z,52.02
2023-02-23T09:16:50.308Z,52.04
2023-02-23T09:17:54.555Z,52.08
2023-02-23T09:18:58.804Z,52.02
2023-02-23T09:20:03.076Z,52.1
2023-02-23T09:21:07.903Z,52.09
2023-02-23T09:22:12.153Z,52.07
2023-02-23T09:23:16.404Z,52.17
2023-02-23T09:24:20.654Z,52.12
2023-02-23T09:25:25.147Z,52.05
2023-02-23T09:26:29.487Z,52.12
2023-02-23T09:27:33.748Z,52.12
2023-02-23T09:28:38.074Z,52.14
2023-02-23T09:29:42.428Z,52.1
2023-02-23T09:30:46.883Z,52.05
2023-02-23T09:31:51.557Z,52.03
2023-02-23T09:32:55.877Z,51.99
2023-02-23T09:34:00.148Z,51.94
2023-02-23T09:35:04.398Z,51.81
2023-02-23T09:36:08.684Z,51.67
2023-02-23T09:37:12.980Z,51.45
2023-02-23T09:38:17.289Z,51.37
2023-02-23T09:39:39.798Z,51.16
2023-02-23T09:40:44.075Z,51
2023-02-23T09:41:48.345Z,50.96
2023-02-23T09:42:52.632Z,50.84
2023-02-23T09:43:56.991Z,50.76
2023-02-23T09:45:01.263Z,50.66
2023-02-23T09:46:05.575Z,50.74
2023-02-23T09:47:12.444Z,50.64
2023-02-23T09:48:16.783Z,50.59
2023-02-23T09:49:22.087Z,50.6
2023-02-23T09:50:26.329Z,50.66
2023-02-23T09:51:30.641Z,50.72
2023-02-23T09:52:35.274Z,50.65
2023-02-23T09:53:39.608Z,50.81
2023-02-23T09:54:43.900Z,50.83
2023-02-23T09:55:48.119Z,51.03
2023-02-23T09:56:52.412Z,50.98
2023-02-23T09:57:56.683Z,50.94
2023-02-23T09:59:00.922Z,50.95
2023-02-23T10:00:05.267Z,49.76
2023-02-23T10:01:09.722Z,48.16
2023-02-23T10:02:14.269Z,48.59
2023-02-23T10:03:18.754Z,48.29
2023-02-23T10:04:22.991Z,48.21
2023-02-23T10:05:27.229Z,47.67
2023-02-23T10:06:31.498Z,47.22
2023-02-23T10:07:35.809Z,47.5
2023-02-23T10:08:40.075Z,47.12
2023-02-23T10:09:44.479Z,47.09
2023-02-23T10:10:48.960Z,46.45
2023-02-23T10:11:53.255Z,46.61
2023-02-23T10:12:57.569Z,46.55
2023-02-23T10:14:01.825Z,46.58
2023-02-23T10:15:06.059Z,46.66
2023-02-23T10:16:10.608Z,47.15
2023-02-23T10:17:14.903Z,47.5
2023-02-23T10:18:19.187Z,47.8
2023-02-23T10:19:23.466Z,47.93
2023-02-23T10:20:27.827Z,48.08
2023-02-23T10:21:32.071Z,48.2
2023-02-23T10:22:36.327Z,48.3
2023-02-23T10:23:40.586Z,48.42
2023-02-23T10:24:44.831Z,47.93
2023-02-23T10:25:49.127Z,48.3
2023-02-23T10:26:53.400Z,47.99
2023-02-23T10:27:57.718Z,48.25
2023-02-23T10:29:02.168Z,48.1
2023-02-23T10:30:06.407Z,48.61
2023-02-23T10:31:11.182Z,48.4
2023-02-23T10:32:15.872Z,48.67
2023-02-23T10:33:20.183Z,48.49
2023-02-23T10:34:25.643Z,48.42
2023-02-23T10:35:29.916Z,48.96
2023-02-23T10:36:34.189Z,48.88
2023-02-23T10:37:38.451Z,48.84
2023-02-23T10:38:42.725Z,48.78
2023-02-23T10:39:50.121Z,48.79
2023-02-23T10:40:54.368Z,48.99
2023-02-23T10:41:58.660Z,48.88
2023-02-23T10:43:02.894Z,49
2023-02-23T10:44:18.676Z,49.27
2023-02-23T10:45:22.951Z,49.31
2023-02-23T10:46:28.287Z,49.34
2023-02-23T10:47:32.613Z,49.14
2023-02-23T10:48:37.053Z,49.21
2023-02-23T10:49:41.321Z,49.41
2023-02-23T10:50:45.604Z,49.61
2023-02-23T10:51:49.942Z,49.39
2023-02-23T10:52:54.274Z,49.55
2023-02-23T10:54:07.895Z,49.64
2023-02-23T10:55:12.258Z,49.62
2023-02-23T10:56:16.536Z,49.64
2023-02-23T10:57:20.779Z,49.57
2023-02-23T10:58:25.536Z,49.69
2023-02-23T10:59:29.831Z,49.77
2023-02-23T11:00:34.204Z,49.73
2023-02-23T11:01:52.140Z,49.81
2023-02-23T11:03:03.437Z,49.87
2023-02-23T11:04:08.403Z,49.97
2023-02-23T11:05:12.640Z,49.83
2023-02-23T11:06:17.660Z,49.93
2023-02-23T11:07:22.100Z,49.96
2023-02-23T11:08:27.344Z,49.78
2023-02-23T11:09:50.462Z,49.9
2023-02-23T11:10:54.713Z,49.89
2023-02-23T11:11:58.971Z,49.95
2023-02-23T11:13:03.278Z,49.96
2023-02-23T11:14:07.569Z,50
2023-02-23T11:15:11.803Z,50.17
2023-02-23T11:16:18.822Z,50.04
2023-02-23T11:17:23.319Z,50
2023-02-23T11:18:28.502Z,50.01
2023-02-23T11:19:32.807Z,49.76
2023-02-23T11:20:37.322Z,49.6
2023-02-23T11:21:41.695Z,49.62
2023-02-23T11:22:45.944Z,49.32
2023-02-23T11:23:50.172Z,49.17
2023-02-23T11:24:54.433Z,49.12
2023-02-23T11:25:58.730Z,49.04
2023-02-23T11:27:02.990Z,49.05
2023-02-23T11:28:07.360Z,48.95
2023-02-23T11:29:11.698Z,48.91
2023-02-23T11:30:15.983Z,48.93
2023-02-23T11:31:22.065Z,48.89
2023-02-23T11:32:27.134Z,48.89
2023-02-23T11:33:31.512Z,48.92
2023-02-23T11:34:35.775Z,48.99
2023-02-23T11:35:43.036Z,48.93
2023-02-23T11:36:47.317Z,49.01
2023-02-23T11:37:51.576Z,49.01
2023-02-23T11:38:55.804Z,49.08
2023-02-23T11:40:00.082Z,48.99
2023-02-23T11:41:04.373Z,49.13
2023-02-23T11:42:08.708Z,49.23
2023-02-23T11:43:12.941Z,49.18
2023-02-23T11:44:17.619Z,49.29
2023-02-23T11:45:21.860Z,49.28
2023-02-23T11:46:26.834Z,49.36
2023-02-23T11:47:31.142Z,49.47
2023-02-23T11:48:35.393Z,49.48
2023-02-23T11:49:39.641Z,49.56
2023-02-23T11:50:43.879Z,49.61
2023-02-23T11:51:48.147Z,49.62
2023-02-23T11:52:52.423Z,49.65
2023-02-23T11:53:56.673Z,49.72
2023-02-23T11:55:00.936Z,49.83
2023-02-23T11:56:05.175Z,49.84
2023-02-23T11:57:09.431Z,49.81
2023-02-23T11:58:13.728Z,49.96
2023-02-23T11:59:18.040Z,49.93
2023-02-23T12:00:22.337Z,50.07
2023-02-23T12:01:26.629Z,49.99
2023-02-23T12:02:30.923Z,50.16
2023-02-23T12:03:35.180Z,50.14
2023-02-23T12:04:39.694Z,50.16
2023-02-23T12:05:43.996Z,50.12
2023-02-23T12:06:48.474Z,50.23
2023-02-23T12:07:52.774Z,50.22
2023-02-23T12:08:57.023Z,50.29
2023-02-23T12:10:01.379Z,50.18
2023-02-23T12:11:05.604Z,50.14
2023-02-23T12:12:09.869Z,50.26
2023-02-23T12:13:14.265Z,50.22
2023-02-23T12:14:18.579Z,50.24
2023-02-23T12:15:22.856Z,50.32
2023-02-23T12:16:27.257Z,50.23
2023-02-23T12:17:31.560Z,50.32
2023-02-23T12:18:36.828Z,50.33
2023-02-23T12:19:41.071Z,50.39
2023-02-23T12:20:45.300Z,50.37
2023-02-23T12:21:49.597Z,50.35
2023-02-23T12:22:53.827Z,50.3
2023-02-23T12:23:58.114Z,50.36
2023-02-23T12:25:02.380Z,50.41
2023-02-23T12:26:06.648Z,50.33
2023-02-23T12:27:10.928Z,50.48
2023-02-23T12:28:21.101Z,50.4
2023-02-23T12:29:25.369Z,50.42
2023-02-23T12:30:29.760Z,50.47
2023-02-23T12:31:34.304Z,50.5
2023-02-23T12:32:38.760Z,50.51
2023-02-23T12:33:43.019Z,50.45
2023-02-23T12:34:47.260Z,50.51
2023-02-23T12:35:51.565Z,50.5
2023-02-23T12:36:56.079Z,50.5
2023-02-23T12:38:00.360Z,50.49
2023-02-23T12:39:04.621Z,50.49
2023-02-23T12:40:08.875Z,50.44
2023-02-23T12:41:13.133Z,50.53
2023-02-23T12:42:17.382Z,50.51
2023-02-23T12:43:21.852Z,50.48
2023-02-23T12:44:26.102Z,50.42
2023-02-23T12:45:30.378Z,50.46
2023-02-23T12:46:34.808Z,50.44
2023-02-23T12:47:39.050Z,50.43
2023-02-23T12:48:43.318Z,50.3
2023-02-23T12:49:47.560Z,50.32
2023-02-23T12:50:51.919Z,50.2
2023-02-23T12:51:56.202Z,50.14
2023-02-23T12:53:01.496Z,50.11
2023-02-23T12:54:05.810Z,50.02
2023-02-23T12:55:10.154Z,50.15
2023-02-23T12:56:14.429Z,50.04
2023-02-23T12:57:18.694Z,50.05
2023-02-23T12:58:23.040Z,50.08
2023-02-23T12:59:27.324Z,50.15
2023-02-23T13:00:31.724Z,50.2
2023-02-23T13:01:36.173Z,50.13
2023-02-23T13:02:40.691Z,50.21
2023-02-23T13:03:45.007Z,50.2
2023-02-23T13:04:49.252Z,50.24
2023-02-23T13:05:53.513Z,50.21
2023-02-23T13:06:57.822Z,50.25
2023-02-23T13:08:15.283Z,50.24
2023-02-23T13:09:19.584Z,50.26
2023-02-23T13:10:23.818Z,50.24
2023-02-23T13:11:28.085Z,50.3
2023-02-23T13:12:32.455Z,50.31
2023-02-23T13:13:36.709Z,50.42
2023-02-23T13:14:40.975Z,50.35
2023-02-23T13:15:45.257Z,50.38
2023-02-23T13:16:49.798Z,50.36
2023-02-23T13:17:54.072Z,50.5
2023-02-23T13:18:58.349Z,50.42
2023-02-23T13:20:02.728Z,50.43
2023-02-23T13:21:07.011Z,50.35
2023-02-23T13:22:11.271Z,50.44
2023-02-23T13:23:15.511Z,50.43
2023-02-23T13:24:19.777Z,50.38
2023-02-23T13:25:24.234Z,50.43
2023-02-23T13:26:28.480Z,50.46
2023-02-23T13:27:32.785Z,50.41
2023-02-23T13:28:37.024Z,50.37
2023-02-23T13:29:41.375Z,50.46
2023-02-23T13:30:45.912Z,50.36
2023-02-23T13:31:50.956Z,50.44
2023-02-23T13:32:55.324Z,50.42
2023-02-23T13:33:59.613Z,50.48
2023-02-23T13:35:03.907Z,50.43
2023-02-23T13:36:08.179Z,50.45
2023-02-23T13:37:12.443Z,50.45
2023-02-23T13:38:16.694Z,50.43
2023-02-23T13:39:21.663Z,50.52
2023-02-23T13:40:25.945Z,50.44
2023-02-23T13:41:30.256Z,50.52
2023-02-23T13:42:34.519Z,50.55
2023-02-23T13:43:39.130Z,50.55
2023-02-23T13:44:43.370Z,50.54
2023-02-23T13:45:47.730Z,50.55
2023-02-23T13:46:52.004Z,50.53
2023-02-23T13:47:56.315Z,50.53
2023-02-23T13:49:03.812Z,50.54
2023-02-23T13:50:08.101Z,50.57
2023-02-23T13:51:12.348Z,50.55
2023-02-23T13:52:16.744Z,50.58
2023-02-23T13:53:21.043Z,50.57